| |
Missouri Department of Transportation

Social Media Facebook Twitter Flickr Instagram YouTube RSS

Current AWOS Information

 
AWOS Home - General Info for all Airports
Current AWOS for all Airports - Current METAR for all Airports
Glossary - Disclaimer - Other Links


NEVADA--NEVADA MUNICIPAL--KNVD
 
Recent AWOS History
 
05/23/15     12:02 PM CDT      17:02 GMT
Air Temperature 60°F (16°C ) 1st Cloud Layer Scattered at 600 feet
Dew Point 58°F (14°C) 2nd Cloud Layer Broken at 2,400 feet
Barometric Pressure 30.24 in Hg. 3rd Cloud Layer Overcast at 2,900 feet
Wind Speed 9 mph (8 knots) Density Altitude  
Peak Wind Gusts   Variable Wind Directions  
Wind Direction Quadrant(140°) Variable Visibility  
Visibility 10 statute miles  

Thunderstorm and Precipitation Identification: 
Thunderstorm Remarks: 

Current METAR Record: METAR KNVD 231704Z AUTO 14006KT 10SM SCT006 BKN024 OVC029 15/15 A3024 RMK AO2

 

 

 

About Us
How Do I...
Contact Us
Missouri Department of Transportation
Central Office
105 W. Capitol Avenue
Jefferson City, MO 65102
1-888-ASK-MODOT (275-6636)
1-866-831-6277 (Motor Carrier Services)
Driver's License Offices
horz_bar
| | |
Missouri State Government
© 2013 Missouri Department of Transportation. All Rights Reserved.   Privacy Policy.
 
 
 
 
RSS FeedYoutubeBlogFlickrTwitter Facebook